createdAt,value
2022-07-26T00:01:57.652Z,95979.97
2022-07-26T00:04:25.220Z,95981.19
2022-07-26T00:06:52.764Z,95980.09
2022-07-26T00:09:21.644Z,95981.53
2022-07-26T00:11:49.146Z,95985.44
2022-07-26T00:14:17.039Z,95991.03
2022-07-26T00:16:44.600Z,95987.72
2022-07-26T00:19:12.339Z,95993.56
2022-07-26T00:21:40.646Z,95994.72
2022-07-26T00:24:09.462Z,96001.34
2022-07-26T00:26:38.355Z,95992.44
2022-07-26T00:29:06.775Z,95997.03
2022-07-26T00:31:34.673Z,96000.56
2022-07-26T00:34:02.314Z,96004.22
2022-07-26T00:36:29.842Z,95995.91
2022-07-26T00:38:57.345Z,95994.88
2022-07-26T00:41:24.860Z,96004.81
2022-07-26T00:43:59.361Z,96001.41
2022-07-26T00:46:27.422Z,95997.97
2022-07-26T00:48:55.359Z,96001.50
2022-07-26T00:51:23.455Z,96003.53
2022-07-26T00:53:51.147Z,95999.34
2022-07-26T00:56:19.005Z,95997.53
2022-07-26T00:58:46.582Z,96002.84
2022-07-26T01:01:15.653Z,95995.97
2022-07-26T01:03:43.248Z,96000.16
2022-07-26T01:06:10.925Z,95997.47
2022-07-26T01:08:38.911Z,95995.97
2022-07-26T01:11:06.703Z,95998.63
2022-07-26T01:13:35.597Z,95998.69
2022-07-26T01:16:03.534Z,95992.59
2022-07-26T01:18:32.507Z,95989.69
2022-07-26T01:21:09.646Z,95992.94
2022-07-26T01:23:43.618Z,95988.38
2022-07-26T01:26:12.251Z,95989.75
2022-07-26T01:28:42.087Z,95996.31
2022-07-26T01:31:10.050Z,95994.66
2022-07-26T01:33:37.676Z,95997.91
2022-07-26T01:36:05.562Z,95999.94
2022-07-26T01:38:33.077Z,95991.28
2022-07-26T01:41:01.987Z,95991.16
2022-07-26T01:43:29.829Z,95987.13
2022-07-26T01:45:57.381Z,95981.94
2022-07-26T01:48:25.282Z,95975.19
2022-07-26T01:50:52.759Z,95975.22
2022-07-26T01:53:20.274Z,95978.97
2022-07-26T01:55:47.767Z,95973.44
2022-07-26T01:58:16.603Z,95971.97
2022-07-26T02:00:44.083Z,95970.69
2022-07-26T02:03:11.734Z,95973.72
2022-07-26T02:05:39.262Z,95972.28
2022-07-26T02:08:06.932Z,95965.91
2022-07-26T02:10:49.023Z,95980.47
2022-07-26T02:13:18.289Z,95970.03
2022-07-26T02:15:45.954Z,95971.44
2022-07-26T02:18:13.648Z,95969.38
2022-07-26T02:20:41.132Z,95965.94
2022-07-26T02:23:08.627Z,95965.13
2022-07-26T02:25:36.122Z,95964.16
2022-07-26T02:28:03.806Z,95971.38
2022-07-26T02:30:32.791Z,95969.22
2022-07-26T02:33:01.360Z,95988.81
2022-07-26T02:35:29.611Z,95985.44
2022-07-26T02:38:01.563Z,95976.59
2022-07-26T02:40:29.246Z,95970.63
2022-07-26T02:42:56.711Z,95972.50
2022-07-26T02:45:24.442Z,95982.63
2022-07-26T02:47:54.945Z,95986.69
2022-07-26T02:50:24.276Z,95980.63
2022-07-26T02:52:53.380Z,95980.59
2022-07-26T02:55:22.624Z,95971.16
2022-07-26T02:57:50.496Z,95978.22
2022-07-26T03:00:23.328Z,95977.31
2022-07-26T03:02:51.336Z,95975.69
2022-07-26T03:05:21.450Z,95978.34
2022-07-26T03:07:49.337Z,95975.66
2022-07-26T03:10:17.349Z,95978.94
2022-07-26T03:12:44.846Z,95980.59
2022-07-26T03:15:12.717Z,95977.25
2022-07-26T03:17:40.474Z,95980.34
2022-07-26T03:20:09.139Z,95983.84
2022-07-26T03:22:37.941Z,95990.06
2022-07-26T03:25:06.525Z,96000.53
2022-07-26T03:27:34.377Z,96001.22
2022-07-26T03:30:02.077Z,95999.47
2022-07-26T03:32:29.623Z,95988.53
2022-07-26T03:34:57.086Z,95987.97
2022-07-26T03:37:24.766Z,95990.66
2022-07-26T03:39:53.620Z,95998.06
2022-07-26T03:42:21.076Z,95996.50
2022-07-26T03:44:48.753Z,95994.88
2022-07-26T03:47:16.309Z,95996.47
2022-07-26T03:49:43.792Z,95999.66
2022-07-26T03:52:11.275Z,95997.44
2022-07-26T03:54:38.745Z,96005.09
2022-07-26T03:57:06.609Z,96003.50
2022-07-26T03:59:34.233Z,96008.84
2022-07-26T04:02:01.766Z,96007.63
2022-07-26T04:04:29.394Z,96018.03
2022-07-26T04:06:57.402Z,96011.66
2022-07-26T04:09:31.031Z,96010.03
2022-07-26T04:11:58.537Z,96012.16
2022-07-26T04:14:27.562Z,96012.22
2022-07-26T04:16:55.080Z,96003.47
2022-07-26T04:19:22.582Z,96013.81
2022-07-26T04:21:50.088Z,96007.72
2022-07-26T04:24:17.566Z,96010.28
2022-07-26T04:26:46.322Z,96012.00
2022-07-26T04:29:15.183Z,96015.44
2022-07-26T04:31:44.059Z,96016.66
2022-07-26T04:34:11.826Z,96017.84
2022-07-26T04:36:39.582Z,96024.94
2022-07-26T04:39:07.142Z,96023.41
2022-07-26T04:41:34.659Z,96021.53
2022-07-26T04:44:02.177Z,96023.63
2022-07-26T04:46:29.746Z,96033.00
2022-07-26T04:48:58.701Z,96036.28
2022-07-26T04:51:26.615Z,96046.13
2022-07-26T04:53:54.095Z,96033.00
2022-07-26T04:56:21.610Z,96036.03
2022-07-26T04:58:49.144Z,96039.81
2022-07-26T05:01:16.719Z,96043.72
2022-07-26T05:03:44.290Z,96043.69
2022-07-26T05:06:13.210Z,96046.72
2022-07-26T05:08:42.030Z,96036.88
2022-07-26T05:11:09.570Z,96039.28
2022-07-26T05:13:37.166Z,96036.88
2022-07-26T05:16:11.967Z,96029.28
2022-07-26T05:18:48.896Z,96027.69
2022-07-26T05:21:19.480Z,96030.97
2022-07-26T05:23:47.049Z,96032.47
2022-07-26T05:26:14.725Z,96035.47
2022-07-26T05:28:42.627Z,96033.75
2022-07-26T05:31:10.231Z,96033.44
2022-07-26T05:33:37.896Z,96029.22
2022-07-26T05:36:05.880Z,96035.25
2022-07-26T05:38:35.094Z,96032.59
2022-07-26T05:41:02.611Z,96027.75
2022-07-26T05:43:41.704Z,96028.78
2022-07-26T05:46:11.084Z,96025.69
2022-07-26T05:48:38.950Z,96039.00
2022-07-26T05:51:06.609Z,96028.06
2022-07-26T05:53:36.004Z,96037.72
2022-07-26T05:56:03.500Z,96034.31
2022-07-26T05:58:31.076Z,96031.28
2022-07-26T06:00:58.590Z,96031.63
2022-07-26T06:03:26.732Z,96035.75
2022-07-26T06:05:56.832Z,96040.53
2022-07-26T06:08:26.065Z,96038.06
2022-07-26T06:10:55.909Z,96047.00
2022-07-26T06:13:23.702Z,96045.69
2022-07-26T06:15:51.796Z,96046.06
2022-07-26T06:18:19.378Z,96045.22
2022-07-26T06:20:48.404Z,96050.16
2022-07-26T06:23:16.030Z,96039.28
2022-07-26T06:25:43.753Z,96046.66
2022-07-26T06:28:12.655Z,96041.59
2022-07-26T06:30:40.560Z,96042.63
2022-07-26T06:33:09.493Z,96045.59
2022-07-26T06:35:38.707Z,96043.50
2022-07-26T06:38:07.026Z,96047.81
2022-07-26T06:40:35.186Z,96044.50
2022-07-26T06:43:04.661Z,96054.41
2022-07-26T06:45:34.253Z,96063.28
2022-07-26T06:48:01.866Z,96059.16
2022-07-26T06:50:29.463Z,96053.81
2022-07-26T06:52:56.989Z,96060.44
2022-07-26T06:55:25.048Z,96055.41
2022-07-26T06:57:52.557Z,96048.41
2022-07-26T07:00:20.312Z,96062.59
2022-07-26T07:02:49.617Z,96066.78
2022-07-26T07:05:17.315Z,96064.09
2022-07-26T07:07:45.118Z,96054.38
2022-07-26T07:10:14.076Z,96066.91
2022-07-26T07:12:43.527Z,96063.75
2022-07-26T07:15:11.778Z,96066.63
2022-07-26T07:17:39.507Z,96063.88
2022-07-26T07:20:09.255Z,96062.28
2022-07-26T07:22:36.756Z,96065.91
2022-07-26T07:25:06.172Z,96067.16
2022-07-26T07:27:33.979Z,96061.81
2022-07-26T07:30:01.474Z,96066.47
2022-07-26T07:32:29.010Z,96065.66
2022-07-26T07:34:56.531Z,96067.53
2022-07-26T07:37:25.368Z,96068.56
2022-07-26T07:39:52.848Z,96073.41
2022-07-26T07:42:21.528Z,96062.44
2022-07-26T07:44:49.991Z,96065.00
2022-07-26T07:47:17.690Z,96057.13
2022-07-26T07:49:45.144Z,96055.44
2022-07-26T07:52:12.619Z,96050.25
2022-07-26T07:54:42.145Z,96047.69
2022-07-26T07:57:09.945Z,96049.47
2022-07-26T07:59:39.268Z,96055.44
2022-07-26T08:02:07.229Z,96056.25
2022-07-26T08:04:34.817Z,96048.50
2022-07-26T08:07:02.372Z,96054.41
2022-07-26T08:09:29.831Z,96056.53
2022-07-26T08:12:02.610Z,96055.72
2022-07-26T08:14:30.225Z,96040.56
2022-07-26T08:16:57.842Z,96053.00
2022-07-26T08:19:25.981Z,96049.44
2022-07-26T08:21:56.831Z,96049.13
2022-07-26T08:24:24.713Z,96053.47
2022-07-26T08:26:53.946Z,96053.28
2022-07-26T08:29:22.791Z,96064.75
2022-07-26T08:31:52.768Z,96060.72
2022-07-26T08:34:21.873Z,96055.69
2022-07-26T08:37:14.194Z,96061.56
2022-07-26T08:39:36.970Z,96061.16
2022-07-26T08:42:05.288Z,96047.22
2022-07-26T08:44:35.004Z,96055.31
2022-07-26T08:47:02.580Z,96049.44
2022-07-26T08:49:30.169Z,96059.59
2022-07-26T08:51:59.808Z,96051.03
2022-07-26T08:54:27.731Z,96052.13
2022-07-26T08:56:55.241Z,96048.31
2022-07-26T08:59:23.528Z,96044.09
2022-07-26T09:01:57.876Z,96057.56
2022-07-26T09:04:38.630Z,96054.84
2022-07-26T09:07:11.192Z,96068.53
2022-07-26T09:09:40.593Z,96057.00
2022-07-26T09:12:16.886Z,96071.16
2022-07-26T09:14:46.637Z,96076.28
2022-07-26T09:17:16.892Z,96069.69
2022-07-26T09:19:44.700Z,96070.84
2022-07-26T09:22:15.810Z,96074.44
2022-07-26T09:24:45.271Z,96077.44
2022-07-26T09:27:14.735Z,96071.78
2022-07-26T09:29:50.041Z,96072.66
2022-07-26T09:32:21.803Z,96066.03
2022-07-26T09:34:53.729Z,96066.63
2022-07-26T09:37:35.674Z,96063.88
2022-07-26T09:40:05.910Z,96060.06
2022-07-26T09:42:33.419Z,96061.47
2022-07-26T09:45:01.388Z,96053.44
2022-07-26T09:47:40.532Z,96059.59
2022-07-26T09:50:12.878Z,96051.72
2022-07-26T09:52:40.832Z,96053.09
2022-07-26T09:55:09.654Z,96052.59
2022-07-26T09:57:37.125Z,96053.97
2022-07-26T10:00:05.976Z,96059.72
2022-07-26T10:02:35.471Z,96061.94
2022-07-26T10:05:04.535Z,96055.63
2022-07-26T10:07:32.100Z,96054.13
2022-07-26T10:10:06.122Z,96050.34
2022-07-26T10:12:34.409Z,96057.50
2022-07-26T10:15:02.353Z,96059.72
2022-07-26T10:17:50.950Z,96050.47
2022-07-26T10:20:48.264Z,96048.66
2022-07-26T10:23:36.782Z,96055.00
2022-07-26T10:26:05.702Z,96053.56
2022-07-26T10:28:35.348Z,96055.94
2022-07-26T10:31:26.435Z,96054.09
2022-07-26T10:33:55.488Z,96052.69
2022-07-26T10:36:26.972Z,96055.66
2022-07-26T10:39:13.908Z,96056.84
2022-07-26T10:41:44.347Z,96060.03
2022-07-26T10:44:21.166Z,96068.78
2022-07-26T10:47:12.193Z,96065.88
2022-07-26T10:49:41.498Z,96068.03
2022-07-26T10:52:13.661Z,96069.69
2022-07-26T10:55:11.145Z,96059.50
2022-07-26T10:57:40.035Z,96060.31
2022-07-26T11:00:14.316Z,96062.34
2022-07-26T11:02:43.715Z,96053.13
2022-07-26T11:05:14.169Z,96050.28
2022-07-26T11:08:05.008Z,96043.44
2022-07-26T11:10:34.037Z,96047.56
2022-07-26T11:13:03.291Z,96056.28
2022-07-26T11:15:30.928Z,96051.78
2022-07-26T11:18:08.352Z,96040.59
2022-07-26T11:20:36.073Z,96043.34
2022-07-26T11:23:05.249Z,96042.25
2022-07-26T11:25:32.735Z,96036.03
2022-07-26T11:28:01.963Z,96027.50
2022-07-26T11:30:30.392Z,96026.09
2022-07-26T11:32:59.612Z,96025.88
2022-07-26T11:35:29.980Z,96024.56
2022-07-26T11:38:11.306Z,96029.53
2022-07-26T11:40:45.337Z,96024.09
2022-07-26T11:43:12.920Z,96016.31
2022-07-26T11:45:41.290Z,96001.00
2022-07-26T11:48:09.044Z,96019.00
2022-07-26T11:50:36.552Z,96008.47
2022-07-26T11:53:21.841Z,96008.69
2022-07-26T11:55:50.751Z,96012.59
2022-07-26T11:58:18.550Z,96012.38
2022-07-26T12:00:46.123Z,96018.63
2022-07-26T12:03:13.654Z,96021.16
2022-07-26T12:05:42.074Z,96020.13
2022-07-26T12:08:09.883Z,96003.63
2022-07-26T12:10:37.425Z,96014.28
2022-07-26T12:13:13.845Z,96008.19
2022-07-26T12:15:46.353Z,96006.13
2022-07-26T12:18:26.509Z,96003.72
2022-07-26T12:21:05.159Z,96002.03
2022-07-26T12:23:45.122Z,96007.22
2022-07-26T12:26:24.050Z,96005.13
2022-07-26T12:28:54.092Z,96014.66
2022-07-26T12:31:26.615Z,96011.63
2022-07-26T12:33:54.319Z,96006.91
2022-07-26T12:36:27.861Z,96005.00
2022-07-26T12:38:57.130Z,96001.09
2022-07-26T12:41:36.091Z,95995.88
2022-07-26T12:44:05.864Z,95961.09
2022-07-26T12:46:34.233Z,95991.22
2022-07-26T12:49:02.076Z,95998.94
2022-07-26T12:51:29.771Z,95989.81
2022-07-26T12:53:57.368Z,95985.22
2022-07-26T12:56:24.898Z,95989.47
2022-07-26T12:58:53.914Z,95982.66
2022-07-26T13:01:22.837Z,95972.88
2022-07-26T13:03:50.455Z,95971.47
2022-07-26T13:06:17.967Z,95967.03
2022-07-26T13:08:45.481Z,95973.91
2022-07-26T13:11:13.067Z,95979.38
2022-07-26T13:13:40.883Z,95984.84
2022-07-26T13:16:12.007Z,95966.03
2022-07-26T13:18:41.270Z,95966.41
2022-07-26T13:21:08.798Z,95971.56
2022-07-26T13:23:36.289Z,95982.13
2022-07-26T13:26:04.479Z,95981.84
2022-07-26T13:28:36.965Z,95977.69
2022-07-26T13:31:04.741Z,95972.41
2022-07-26T13:33:33.493Z,95973.16
2022-07-26T13:36:02.413Z,95973.19
2022-07-26T13:38:33.409Z,95975.59
2022-07-26T13:41:03.162Z,95974.22
2022-07-26T13:43:31.389Z,95980.94
2022-07-26T13:45:59.104Z,95980.00
2022-07-26T13:48:26.660Z,95972.22
2022-07-26T13:50:54.497Z,95978.81
2022-07-26T13:53:23.341Z,95973.75
2022-07-26T13:55:50.975Z,95970.19
2022-07-26T13:58:21.356Z,95976.19
2022-07-26T14:00:49.838Z,95981.38
2022-07-26T14:03:17.576Z,95976.47
2022-07-26T14:05:45.136Z,95969.38
2022-07-26T14:08:12.866Z,95974.66
2022-07-26T14:10:42.051Z,95973.06
2022-07-26T14:13:10.059Z,95970.72
2022-07-26T14:15:37.751Z,95977.94
2022-07-26T14:18:05.574Z,95980.59
2022-07-26T14:20:33.307Z,95985.41
2022-07-26T14:23:01.242Z,95989.28
2022-07-26T14:25:29.067Z,95983.63
2022-07-26T14:28:00.934Z,95986.31
2022-07-26T14:30:28.480Z,95980.28
2022-07-26T14:32:56.093Z,95990.00
2022-07-26T14:35:23.764Z,95983.88
2022-07-26T14:37:51.282Z,95988.09
2022-07-26T14:40:18.824Z,95984.94
2022-07-26T14:42:47.168Z,95984.66
2022-07-26T14:45:16.585Z,95976.00
2022-07-26T14:47:44.361Z,95981.91
2022-07-26T14:50:13.571Z,95985.00
2022-07-26T14:52:45.529Z,95976.78
2022-07-26T14:55:13.911Z,95978.75
2022-07-26T14:57:41.871Z,95969.50
2022-07-26T15:00:11.912Z,95987.31
2022-07-26T15:02:42.394Z,95984.97
2022-07-26T15:05:11.167Z,95985.44
2022-07-26T15:07:39.535Z,95986.28
2022-07-26T15:10:09.553Z,95980.50
2022-07-26T15:12:37.510Z,95975.28
2022-07-26T15:15:05.808Z,95968.72
2022-07-26T15:17:33.766Z,95978.06
2022-07-26T15:20:03.325Z,95982.09
2022-07-26T15:22:30.863Z,95983.38
2022-07-26T15:24:58.465Z,95975.56
2022-07-26T15:27:25.961Z,95982.13
2022-07-26T15:29:53.583Z,95966.06
2022-07-26T15:32:21.600Z,95977.28
2022-07-26T15:34:49.332Z,95982.16
2022-07-26T15:37:18.838Z,95979.44
2022-07-26T15:39:46.317Z,95987.53
2022-07-26T15:42:15.672Z,95984.72
2022-07-26T15:44:43.705Z,95987.25
2022-07-26T15:47:11.737Z,95988.16
2022-07-26T15:49:40.971Z,95983.13
2022-07-26T15:52:11.344Z,95988.13
2022-07-26T15:54:42.146Z,95986.22
2022-07-26T15:57:09.884Z,95984.84
2022-07-26T15:59:37.368Z,95976.19
2022-07-26T16:02:06.102Z,95980.50
2022-07-26T16:04:33.665Z,95970.69
2022-07-26T16:07:01.130Z,95978.38
2022-07-26T16:09:28.907Z,95975.06
2022-07-26T16:12:00.497Z,95987.72
2022-07-26T16:14:30.229Z,95984.94
2022-07-26T16:16:57.792Z,95985.13
2022-07-26T16:19:25.334Z,95980.22
2022-07-26T16:21:52.812Z,95980.78
2022-07-26T16:24:20.315Z,95970.16
2022-07-26T16:26:47.950Z,95976.09
2022-07-26T16:29:16.744Z,95977.50
2022-07-26T16:31:44.379Z,95973.69
2022-07-26T16:34:12.234Z,95981.50
2022-07-26T16:36:39.752Z,95974.13
2022-07-26T16:39:08.110Z,95976.13
2022-07-26T16:41:36.356Z,95982.31
2022-07-26T16:44:04.398Z,95983.59
2022-07-26T16:46:33.353Z,95985.88
2022-07-26T16:49:01.050Z,95981.97
2022-07-26T16:51:28.498Z,95984.78
2022-07-26T16:53:55.959Z,95983.84
2022-07-26T16:56:23.417Z,95982.28
2022-07-26T16:58:50.911Z,95982.31
2022-07-26T17:01:18.431Z,95972.59
2022-07-26T17:03:47.261Z,95977.75
2022-07-26T17:06:14.894Z,95986.41
2022-07-26T17:08:43.169Z,95976.03
2022-07-26T17:11:11.318Z,95981.47
2022-07-26T17:13:38.789Z,95976.75
2022-07-26T17:16:06.415Z,95980.25
2022-07-26T17:18:33.949Z,95977.09
2022-07-26T17:21:02.781Z,95980.81
2022-07-26T17:23:30.345Z,95995.84
2022-07-26T17:25:57.806Z,95988.03
2022-07-26T17:28:25.315Z,95985.09
2022-07-26T17:30:52.772Z,95991.44
2022-07-26T17:33:20.410Z,95992.91
2022-07-26T17:35:47.995Z,95993.22
2022-07-26T17:38:16.833Z,95992.28
2022-07-26T17:40:44.679Z,95994.28
2022-07-26T17:43:14.732Z,96006.84
2022-07-26T17:45:42.585Z,96002.13
2022-07-26T17:48:10.120Z,96004.22
2022-07-26T17:50:38.593Z,95995.03
2022-07-26T17:53:06.627Z,96003.09
2022-07-26T17:55:35.484Z,96003.69
2022-07-26T17:58:03.002Z,96006.03
2022-07-26T18:00:30.568Z,96005.81
2022-07-26T18:02:58.459Z,95998.88
2022-07-26T18:05:33.094Z,95998.25
2022-07-26T18:08:02.711Z,96005.94
2022-07-26T18:10:30.271Z,96007.88
2022-07-26T18:12:59.097Z,96005.97
2022-07-26T18:15:26.708Z,96003.19
2022-07-26T18:17:54.276Z,96006.78
2022-07-26T18:20:21.813Z,96004.53
2022-07-26T18:22:53.611Z,96013.75
2022-07-26T18:25:21.358Z,96017.66
2022-07-26T18:27:49.742Z,96010.16
2022-07-26T18:30:18.668Z,96009.69
2022-07-26T18:32:46.210Z,96017.59
2022-07-26T18:35:13.807Z,96020.06
2022-07-26T18:37:41.373Z,96017.16
2022-07-26T18:40:09.752Z,96019.31
2022-07-26T18:42:37.821Z,96023.31
2022-07-26T18:45:06.397Z,96024.84
2022-07-26T18:47:35.284Z,96032.19
2022-07-26T18:50:03.047Z,96034.19
2022-07-26T18:52:32.535Z,96030.56
2022-07-26T18:55:02.411Z,96032.81
2022-07-26T18:57:30.001Z,96027.81
2022-07-26T18:59:57.543Z,96030.50
2022-07-26T19:02:25.354Z,96036.97
2022-07-26T19:04:54.435Z,96035.69
2022-07-26T19:07:22.055Z,96038.69
2022-07-26T19:09:50.938Z,96047.69
2022-07-26T19:12:21.228Z,96053.69
2022-07-26T19:14:48.785Z,96056.31
2022-07-26T19:17:19.849Z,96055.59
2022-07-26T19:19:47.357Z,96061.34
2022-07-26T19:22:16.196Z,96066.28
2022-07-26T19:24:43.933Z,96070.59
2022-07-26T19:27:11.465Z,96067.59
2022-07-26T19:29:39.360Z,96073.28
2022-07-26T19:32:07.869Z,96071.63
2022-07-26T19:34:35.792Z,96083.72
2022-07-26T19:37:04.792Z,96075.03
2022-07-26T19:39:33.649Z,96082.16
2022-07-26T19:42:01.272Z,96080.56
2022-07-26T19:44:28.816Z,96084.91
2022-07-26T19:46:57.936Z,96084.97
2022-07-26T19:49:25.850Z,96087.84
2022-07-26T19:51:53.428Z,96089.50
2022-07-26T19:54:21.244Z,96089.38
2022-07-26T19:56:50.223Z,96084.75
2022-07-26T19:59:23.003Z,96089.16
2022-07-26T20:01:52.751Z,96090.38
2022-07-26T20:04:20.427Z,96081.47
2022-07-26T20:06:48.175Z,96095.13
2022-07-26T20:09:15.711Z,96096.66
2022-07-26T20:11:45.136Z,96092.00
2022-07-26T20:14:13.980Z,96087.50
2022-07-26T20:16:41.517Z,96089.78
2022-07-26T20:19:09.352Z,96093.38
2022-07-26T20:21:37.140Z,96089.16
2022-07-26T20:24:04.867Z,96096.50
2022-07-26T20:26:32.482Z,96098.03
2022-07-26T20:29:00.410Z,96093.47
2022-07-26T20:31:29.354Z,96102.97
2022-07-26T20:33:56.973Z,96099.34
2022-07-26T20:36:24.570Z,96104.25
2022-07-26T20:38:52.177Z,96116.19
2022-07-26T20:41:21.746Z,96110.53
2022-07-26T20:43:49.371Z,96110.19
2022-07-26T20:46:16.880Z,96103.69
2022-07-26T20:48:45.787Z,96102.81
2022-07-26T20:51:13.936Z,96109.41
2022-07-26T20:53:41.810Z,96111.00
2022-07-26T20:56:10.264Z,96108.84
2022-07-26T20:58:37.953Z,96108.09
2022-07-26T21:01:06.594Z,96109.38
2022-07-26T21:03:34.166Z,96108.56
2022-07-26T21:06:02.948Z,96108.28
2022-07-26T21:08:30.468Z,96114.13
2022-07-26T21:10:57.985Z,96109.72
2022-07-26T21:13:25.454Z,96115.88
2022-07-26T21:15:54.202Z,96115.97
2022-07-26T21:18:22.186Z,96114.09
2022-07-26T21:20:49.711Z,96115.59
2022-07-26T21:23:19.069Z,96116.78
2022-07-26T21:25:47.801Z,96111.84
2022-07-26T21:28:15.326Z,96110.34
2022-07-26T21:30:43.041Z,96116.38
2022-07-26T21:33:10.527Z,96116.63
2022-07-26T21:35:37.996Z,96114.66
2022-07-26T21:38:05.464Z,96114.81
2022-07-26T21:40:34.505Z,96119.50
2022-07-26T21:43:02.233Z,96122.59
2022-07-26T21:45:29.768Z,96121.06
2022-07-26T21:47:57.285Z,96125.13
2022-07-26T21:50:24.898Z,96127.81
2022-07-26T21:52:52.370Z,96126.63
2022-07-26T21:55:19.947Z,96129.91
2022-07-26T21:57:48.987Z,96130.34
2022-07-26T22:00:17.237Z,96134.16
2022-07-26T22:02:45.020Z,96134.78
2022-07-26T22:05:26.538Z,96134.88
2022-07-26T22:07:54.034Z,96136.69
2022-07-26T22:10:21.667Z,96123.44
2022-07-26T22:12:50.682Z,96129.72
2022-07-26T22:15:18.447Z,96136.75
2022-07-26T22:17:46.029Z,96135.56
2022-07-26T22:20:13.746Z,96138.94
2022-07-26T22:22:41.227Z,96134.31
2022-07-26T22:25:09.452Z,96138.50
2022-07-26T22:27:36.936Z,96135.25
2022-07-26T22:30:07.846Z,96138.16
2022-07-26T22:32:35.896Z,96135.00
2022-07-26T22:35:03.380Z,96140.25
2022-07-26T22:37:30.855Z,96137.75
2022-07-26T22:39:58.303Z,96143.13
2022-07-26T22:42:25.754Z,96138.94
2022-07-26T22:44:53.244Z,96148.00
2022-07-26T22:47:22.049Z,96148.44
2022-07-26T22:49:49.535Z,96154.63
2022-07-26T22:52:17.024Z,96147.03
2022-07-26T22:54:44.699Z,96143.22
2022-07-26T22:57:12.191Z,96145.63
2022-07-26T22:59:39.775Z,96143.53
2022-07-26T23:02:07.263Z,96144.31
2022-07-26T23:04:36.039Z,96141.72
2022-07-26T23:07:03.653Z,96138.63
2022-07-26T23:09:32.155Z,96135.31
2022-07-26T23:11:59.791Z,96139.69
2022-07-26T23:14:27.421Z,96146.75
2022-07-26T23:16:54.966Z,96139.69
2022-07-26T23:19:22.504Z,96133.56
2022-07-26T23:21:51.445Z,96131.16
2022-07-26T23:24:18.944Z,96130.97
2022-07-26T23:26:46.409Z,96131.81
2022-07-26T23:29:14.350Z,96132.41
2022-07-26T23:31:42.518Z,96131.63
2022-07-26T23:34:10.099Z,96136.59
2022-07-26T23:36:37.585Z,96128.47
2022-07-26T23:39:06.553Z,96132.50
2022-07-26T23:41:34.198Z,96131.91
2022-07-26T23:44:01.893Z,96121.06
2022-07-26T23:46:29.507Z,96124.53
2022-07-26T23:48:58.423Z,96113.53
2022-07-26T23:51:26.005Z,96117.28
2022-07-26T23:53:54.296Z,96122.34
2022-07-26T23:56:23.950Z,96112.94
2022-07-26T23:58:51.824Z,96104.69
